createdAt,value
2019-04-16T00:00:32.235Z,14.67
2019-04-16T00:03:00.714Z,14.20
2019-04-16T00:05:40.463Z,13.43
2019-04-16T00:08:26.623Z,14.23
2019-04-16T00:10:51.771Z,13.70
2019-04-16T00:13:27.916Z,13.23
2019-04-16T00:15:56.918Z,13.47
2019-04-16T00:18:25.544Z,13.30
2019-04-16T00:21:10.826Z,13.60
2019-04-16T00:23:57.003Z,12.73
2019-04-16T00:26:26.791Z,13.30
2019-04-16T00:28:55.669Z,13.20
2019-04-16T00:31:24.272Z,13.03
2019-04-16T00:33:52.759Z,12.50
2019-04-16T00:36:21.297Z,12.40
2019-04-16T00:38:53.865Z,13.43
2019-04-16T00:41:20.302Z,13.27
2019-04-16T00:43:48.784Z,13.40
2019-04-16T00:46:17.339Z,12.83
2019-04-16T00:48:45.823Z,12.83
2019-04-16T00:51:14.684Z,13.10
2019-04-16T00:53:43.239Z,12.30
2019-04-16T00:56:13.397Z,12.77
2019-04-16T00:58:41.972Z,12.20
2019-04-16T01:01:10.493Z,13.70
2019-04-16T01:03:38.976Z,11.90
2019-04-16T01:06:08.401Z,12.40
2019-04-16T01:08:37.423Z,12.37
2019-04-16T01:11:05.882Z,12.80
2019-04-16T01:13:34.408Z,12.93
2019-04-16T01:16:04.089Z,13.77
2019-04-16T01:18:32.733Z,12.77
2019-04-16T01:21:01.368Z,13.07
2019-04-16T01:23:29.825Z,13.20
2019-04-16T01:25:58.388Z,12.20
2019-04-16T01:28:34.288Z,12.43
2019-04-16T01:31:07.110Z,12.27
2019-04-16T01:33:36.576Z,12.67
2019-04-16T01:36:12.360Z,11.87
2019-04-16T01:39:15.173Z,12.00
2019-04-16T01:41:28.745Z,11.50
2019-04-16T01:43:57.892Z,12.67
2019-04-16T01:46:26.759Z,13.00
2019-04-16T01:48:55.789Z,12.23
2019-04-16T01:51:24.690Z,11.50
2019-04-16T01:53:53.152Z,11.10
2019-04-16T01:59:04.558Z,11.70
2019-04-16T02:01:31.621Z,12.87
2019-04-16T02:04:00.152Z,11.57
2019-04-16T02:06:28.997Z,12.10
2019-04-16T02:09:01.741Z,11.20
2019-04-16T02:11:27.808Z,11.27
2019-04-16T02:13:56.339Z,12.27
2019-04-16T02:16:25.209Z,11.40
2019-04-16T02:18:54.556Z,11.53
2019-04-16T02:21:23.010Z,11.97
2019-04-16T02:23:51.491Z,12.90
2019-04-16T02:26:20.485Z,11.40
2019-04-16T02:28:50.241Z,12.13
2019-04-16T02:31:18.772Z,12.40
2019-04-16T02:33:47.337Z,12.20
2019-04-16T02:36:15.865Z,13.20
2019-04-16T02:38:52.295Z,12.20
2019-04-16T02:41:14.618Z,12.20
2019-04-16T02:43:43.169Z,12.67
2019-04-16T02:46:11.701Z,11.80
2019-04-16T02:48:40.286Z,11.80
2019-04-16T02:51:27.108Z,12.80
2019-04-16T02:54:15.608Z,12.37
2019-04-16T02:56:51.548Z,12.77
2019-04-16T02:59:32.706Z,12.00
2019-04-16T03:02:09.179Z,13.07
2019-04-16T03:04:42.703Z,11.80
2019-04-16T03:07:11.239Z,12.43
2019-04-16T03:09:40.867Z,12.47
2019-04-16T03:12:09.591Z,13.13
2019-04-16T03:14:38.143Z,11.60
2019-04-16T03:17:14.761Z,12.83
2019-04-16T03:19:44.947Z,12.10
2019-04-16T03:22:13.467Z,12.70
2019-04-16T03:24:41.952Z,12.47
2019-04-16T03:27:10.714Z,12.70
2019-04-16T03:29:39.614Z,12.37
2019-04-16T03:32:12.834Z,12.23
2019-04-16T03:34:38.700Z,12.20
2019-04-16T03:37:07.148Z,12.77
2019-04-16T03:39:35.879Z,12.40
2019-04-16T03:42:04.434Z,11.70
2019-04-16T03:44:33.578Z,12.37
2019-04-16T03:47:03.243Z,12.07
2019-04-16T03:49:31.775Z,12.10
2019-04-16T03:52:00.640Z,12.33
2019-04-16T03:54:29.099Z,12.07
2019-04-16T03:57:01.825Z,13.03
2019-04-16T03:59:27.759Z,12.37
2019-04-16T04:01:56.511Z,13.00
2019-04-16T04:04:28.910Z,12.67
2019-04-16T04:06:55.176Z,12.50
2019-04-16T04:09:24.146Z,12.93
2019-04-16T04:11:52.695Z,12.50
2019-04-16T04:14:23.266Z,13.43
2019-04-16T04:16:51.356Z,12.10
2019-04-16T04:19:19.888Z,12.00
2019-04-16T04:21:50.572Z,11.60
2019-04-16T04:24:18.623Z,12.67
2019-04-16T04:26:47.103Z,11.70
2019-04-16T04:29:15.565Z,11.67
2019-04-16T04:31:44.163Z,12.20
2019-04-16T04:34:15.887Z,13.20
2019-04-16T04:36:42.900Z,13.50
2019-04-16T04:39:14.893Z,12.73
2019-04-16T04:41:41.949Z,23.30
2019-04-16T04:44:10.499Z,13.60
2019-04-16T04:46:38.957Z,12.50
2019-04-16T04:49:07.508Z,13.00
2019-04-16T04:51:36.395Z,14.03
2019-04-16T04:54:06.242Z,12.20
2019-04-16T04:56:34.771Z,13.53
2019-04-16T04:59:05.172Z,11.93
2019-04-16T05:01:33.992Z,13.03
2019-04-16T05:04:04.183Z,13.63
2019-04-16T05:06:34.283Z,12.93
2019-04-16T05:09:03.126Z,13.90
2019-04-16T05:11:31.587Z,13.67
2019-04-16T05:14:00.256Z,14.07
2019-04-16T05:16:31.517Z,13.20
2019-04-16T05:18:59.059Z,13.73
2019-04-16T05:21:27.511Z,13.90
2019-04-16T05:23:57.598Z,13.60
2019-04-16T05:26:26.803Z,13.53
2019-04-16T05:28:57.327Z,14.90
2019-04-16T05:31:26.188Z,14.97
2019-04-16T05:33:54.836Z,14.30
2019-04-16T05:36:23.301Z,14.23
2019-04-16T05:38:55.514Z,14.47
2019-04-16T05:41:22.814Z,13.47
2019-04-16T05:43:51.396Z,13.53
2019-04-16T05:46:19.851Z,13.80
2019-04-16T05:48:51.337Z,12.80
2019-04-16T05:51:18.835Z,13.67
2019-04-16T05:53:48.952Z,12.80
2019-04-16T05:56:28.469Z,12.70
2019-04-16T05:58:59.658Z,13.63
2019-04-16T06:01:32.327Z,13.97
2019-04-16T06:04:01.146Z,12.70
2019-04-16T06:06:31.817Z,13.70
2019-04-16T06:09:00.162Z,13.37
2019-04-16T06:11:35.527Z,13.57
2019-04-16T06:14:06.423Z,12.90
2019-04-16T06:16:56.391Z,13.93
2019-04-16T06:19:30.371Z,12.93
2019-04-16T06:22:06.460Z,13.20
2019-04-16T06:24:48.920Z,13.87
2019-04-16T06:27:28.040Z,12.40
2019-04-16T06:30:16.423Z,14.00
2019-04-16T06:32:46.811Z,13.63
2019-04-16T06:35:25.651Z,13.20
2019-04-16T06:38:01.743Z,13.13
2019-04-16T06:40:40.882Z,12.80
2019-04-16T06:43:11.131Z,13.07
2019-04-16T06:45:50.452Z,13.53
2019-04-16T06:48:20.547Z,13.23
2019-04-16T06:50:54.448Z,13.27
2019-04-16T06:53:30.912Z,12.90
2019-04-16T06:56:10.007Z,13.03
2019-04-16T06:58:51.299Z,13.83
2019-04-16T07:01:22.751Z,13.37
2019-04-16T07:03:58.480Z,13.27
2019-04-16T07:06:25.174Z,12.97
2019-04-16T07:09:01.385Z,12.50
2019-04-16T07:11:31.580Z,13.07
2019-04-16T07:14:00.036Z,13.20
2019-04-16T07:16:29.160Z,12.77
2019-04-16T07:18:57.987Z,13.03
2019-04-16T07:21:26.660Z,12.60
2019-04-16T07:23:58.151Z,13.67
2019-04-16T07:26:25.727Z,12.93
2019-04-16T07:29:02.584Z,13.20
2019-04-16T07:31:34.174Z,12.90
2019-04-16T07:34:20.858Z,12.70
2019-04-16T07:36:51.420Z,12.97
2019-04-16T07:39:37.837Z,12.60
2019-04-16T07:42:14.050Z,12.97
2019-04-16T07:44:55.538Z,13.03
2019-04-16T07:47:40.820Z,13.10
2019-04-16T07:50:23.052Z,12.70
2019-04-16T07:52:56.498Z,12.80
2019-04-16T07:55:29.785Z,13.20
2019-04-16T07:57:58.320Z,13.70
2019-04-16T08:00:26.880Z,12.63
2019-04-16T08:02:55.482Z,13.70
2019-04-16T08:05:27.602Z,13.77
2019-04-16T08:07:54.786Z,13.10
2019-04-16T08:10:23.342Z,13.10
2019-04-16T08:12:53.521Z,13.13
2019-04-16T08:15:22.143Z,13.43
2019-04-16T08:17:50.923Z,13.50
2019-04-16T08:20:20.997Z,13.87
2019-04-16T08:22:51.059Z,13.23
2019-04-16T08:25:21.255Z,14.00
2019-04-16T08:27:50.853Z,14.30
2019-04-16T08:30:19.931Z,13.60
2019-04-16T08:32:48.860Z,13.23
2019-04-16T08:35:18.328Z,14.90
2019-04-16T08:37:49.207Z,14.73
2019-04-16T08:40:17.071Z,13.77
2019-04-16T08:42:45.537Z,13.37
2019-04-16T08:45:14.435Z,14.47
2019-04-16T08:47:44.958Z,13.73
2019-04-16T08:50:13.473Z,13.80
2019-04-16T08:52:42.622Z,14.50
2019-04-16T08:55:11.161Z,14.00
2019-04-16T08:57:39.627Z,14.23
2019-04-16T09:00:14.092Z,14.63
2019-04-16T09:02:40.415Z,14.17
2019-04-16T09:05:11.424Z,13.63
2019-04-16T09:07:39.217Z,14.07
2019-04-16T09:10:18.149Z,14.50
2019-04-16T09:12:45.640Z,13.60
2019-04-16T09:15:13.353Z,14.33
2019-04-16T09:17:43.872Z,14.43
2019-04-16T09:20:14.509Z,13.43
2019-04-16T09:22:49.280Z,14.40
2019-04-16T09:25:21.576Z,14.90
2019-04-16T09:27:54.084Z,13.97
2019-04-16T09:30:36.377Z,13.90
2019-04-16T09:33:06.483Z,13.63
2019-04-16T09:35:36.687Z,13.70
2019-04-16T09:38:23.351Z,14.33
2019-04-16T09:41:09.844Z,14.60
2019-04-16T09:43:45.940Z,14.70
2019-04-16T09:46:21.234Z,14.47
2019-04-16T09:48:44.820Z,15.23
2019-04-16T09:51:19.158Z,14.20
2019-04-16T09:53:43.560Z,15.17
2019-04-16T09:56:30.675Z,14.83
2019-04-16T09:59:02.770Z,13.90
2019-04-16T10:01:39.249Z,14.50
2019-04-16T10:04:09.416Z,14.50
2019-04-16T10:06:38.040Z,15.13
2019-04-16T10:09:07.190Z,13.93
2019-04-16T10:11:36.495Z,14.50
2019-04-16T10:14:06.179Z,14.10
2019-04-16T10:16:34.968Z,14.40
2019-04-16T10:19:07.648Z,13.90
2019-04-16T10:21:33.689Z,14.67
2019-04-16T10:24:09.666Z,13.50
2019-04-16T10:26:38.199Z,13.53
2019-04-16T10:29:14.282Z,13.70
2019-04-16T10:31:42.904Z,12.60
2019-04-16T10:34:11.506Z,12.73
2019-04-16T10:36:40.062Z,12.33
2019-04-16T10:39:13.130Z,13.10
2019-04-16T10:41:43.298Z,12.20
2019-04-16T10:44:19.171Z,12.00
2019-04-16T10:46:49.446Z,12.10
2019-04-16T10:49:28.685Z,12.10
2019-04-16T10:51:58.891Z,12.17
2019-04-16T10:54:44.114Z,12.37
2019-04-16T10:57:20.332Z,11.03
2019-04-16T10:59:53.298Z,11.03
2019-04-16T11:02:41.908Z,11.43
2019-04-16T11:05:20.070Z,10.63
2019-04-16T11:07:50.583Z,10.50
2019-04-16T11:10:20.136Z,11.00
2019-04-16T11:12:49.077Z,10.50
2019-04-16T11:15:19.309Z,10.77
2019-04-16T11:17:47.895Z,11.00
2019-04-16T11:20:16.558Z,11.00
2019-04-16T11:22:45.103Z,10.40
2019-04-16T11:25:13.777Z,10.13
2019-04-16T11:27:42.357Z,10.17
2019-04-16T11:30:14.174Z,10.43
2019-04-16T11:32:42.743Z,10.63
2019-04-16T11:35:13.415Z,9.63
2019-04-16T11:37:44.438Z,10.07
2019-04-16T11:40:13.610Z,10.30
2019-04-16T11:42:42.131Z,10.47
2019-04-16T11:45:11.647Z,10.10
2019-04-16T11:47:40.508Z,10.55
2019-04-16T11:50:09.139Z,10.80
2019-04-16T11:52:39.934Z,10.48
2019-04-16T11:55:08.332Z,10.40
2019-04-16T11:57:36.864Z,10.15
2019-04-16T12:00:17.808Z,10.60
2019-04-16T12:03:04.488Z,9.75
2019-04-16T12:05:37.387Z,9.85
2019-04-16T12:08:10.101Z,10.40
2019-04-16T12:10:43.043Z,10.27
2019-04-16T12:13:25.563Z,11.20
2019-04-16T12:15:58.202Z,11.20
2019-04-16T12:18:31.791Z,11.03
2019-04-16T12:21:09.518Z,11.67
2019-04-16T12:23:39.692Z,15.63
2019-04-16T12:26:12.869Z,10.97
2019-04-16T12:28:45.987Z,12.57
2019-04-16T12:31:21.986Z,12.33
2019-04-16T12:33:58.023Z,11.50
2019-04-16T12:36:40.503Z,11.63
2019-04-16T12:39:10.835Z,11.30
2019-04-16T12:41:47.123Z,12.00
2019-04-16T12:44:45.075Z,11.57
2019-04-16T12:47:05.694Z,13.30
2019-04-16T12:49:41.611Z,13.80
2019-04-16T12:52:28.289Z,11.87
2019-04-16T12:54:59.460Z,10.33
2019-04-16T12:57:35.797Z,10.97
2019-04-16T13:00:12.038Z,9.73
2019-04-16T13:02:54.451Z,10.50
2019-04-16T13:05:27.315Z,9.83
2019-04-16T13:07:57.752Z,10.10
2019-04-16T13:10:27.855Z,10.30
2019-04-16T13:13:00.584Z,10.63
2019-04-16T13:15:46.339Z,11.03
2019-04-16T13:18:19.111Z,10.67
2019-04-16T13:20:49.278Z,10.70
2019-04-16T13:23:21.936Z,10.80
2019-04-16T13:25:55.171Z,11.50
2019-04-16T13:28:23.873Z,11.40
2019-04-16T13:30:52.711Z,11.07
2019-04-16T13:33:21.259Z,11.10
2019-04-16T13:35:49.716Z,10.40
2019-04-16T13:38:19.844Z,10.60
2019-04-16T13:40:50.189Z,10.23
2019-04-16T13:43:20.161Z,11.00
2019-04-16T13:45:49.003Z,10.60
2019-04-16T13:48:19.543Z,10.33
2019-04-16T13:50:49.647Z,10.30
2019-04-16T13:53:28.714Z,10.47
2019-04-16T13:56:00.455Z,11.40
2019-04-16T13:58:49.328Z,9.80
2019-04-16T14:01:22.048Z,11.33
2019-04-16T14:03:50.689Z,11.13
2019-04-16T14:06:19.212Z,10.93
2019-04-16T14:08:48.042Z,9.97
2019-04-16T14:11:19.749Z,10.40
2019-04-16T14:13:50.099Z,10.13
2019-04-16T14:16:17.324Z,10.30
2019-04-16T14:18:45.803Z,9.90
2019-04-16T14:21:14.335Z,10.20
2019-04-16T14:23:42.899Z,9.53
2019-04-16T14:26:11.568Z,9.50
2019-04-16T14:28:51.323Z,10.40
2019-04-16T14:31:10.749Z,10.47
2019-04-16T14:33:54.223Z,10.57
2019-04-16T14:36:23.053Z,10.07
2019-04-16T14:39:09.203Z,10.33
2019-04-16T14:41:37.735Z,10.90
2019-04-16T14:44:10.747Z,11.33
2019-04-16T14:46:39.277Z,10.10
2019-04-16T14:49:07.760Z,9.40
2019-04-16T14:51:36.361Z,9.10
2019-04-16T14:54:15.455Z,10.60
2019-04-16T14:56:48.583Z,10.30
2019-04-16T14:59:30.374Z,10.37
2019-04-16T15:01:53.803Z,9.60
2019-04-16T15:04:36.011Z,10.30
2019-04-16T15:07:15.552Z,10.07
2019-04-16T15:09:45.759Z,10.40
2019-04-16T15:12:21.698Z,9.80
2019-04-16T15:14:55.263Z,11.30
2019-04-16T15:17:31.618Z,11.37
2019-04-16T15:20:18.127Z,10.20
2019-04-16T15:22:48.221Z,10.50
2019-04-16T15:25:36.524Z,10.53
2019-04-16T15:28:09.142Z,11.30
2019-04-16T15:30:42.019Z,10.77
2019-04-16T15:33:28.451Z,11.20
2019-04-16T15:36:10.725Z,10.60
2019-04-16T15:38:47.027Z,10.33
2019-04-16T15:41:17.563Z,10.10
2019-04-16T15:44:04.179Z,9.97
2019-04-16T15:46:49.651Z,9.73
2019-04-16T15:49:29.435Z,9.10
2019-04-16T15:52:15.868Z,9.90
2019-04-16T15:54:46.129Z,9.70
2019-04-16T15:57:31.843Z,9.60
2019-04-16T16:00:04.726Z,11.10
2019-04-16T16:02:51.499Z,10.10
2019-04-16T16:05:21.815Z,9.60
2019-04-16T16:08:03.937Z,9.30
2019-04-16T16:10:34.119Z,10.03
2019-04-16T16:13:02.746Z,10.33
2019-04-16T16:15:31.271Z,8.97
2019-04-16T16:17:59.912Z,9.67
2019-04-16T16:20:28.375Z,9.70
2019-04-16T16:22:59.266Z,9.20
2019-04-16T16:25:27.455Z,8.97
2019-04-16T16:27:56.269Z,9.20
2019-04-16T16:30:24.955Z,10.00
2019-04-16T16:32:53.868Z,10.27
2019-04-16T16:35:22.752Z,9.77
2019-04-16T16:37:51.324Z,10.67
2019-04-16T16:40:19.784Z,10.60
2019-04-16T16:42:48.280Z,10.37
2019-04-16T16:45:17.092Z,9.20
2019-04-16T16:47:45.979Z,9.73
2019-04-16T16:50:15.373Z,9.33
2019-04-16T16:52:50.215Z,9.47
2019-04-16T16:55:20.686Z,9.63
2019-04-16T16:57:53.520Z,9.60
2019-04-16T17:00:39.920Z,9.30
2019-04-16T17:03:28.787Z,10.00
2019-04-16T17:05:59.311Z,10.30
2019-04-16T17:08:30.171Z,9.97
2019-04-16T17:10:58.204Z,9.40
2019-04-16T17:13:27.111Z,10.30
2019-04-16T17:15:55.600Z,10.03
2019-04-16T17:18:24.383Z,9.37
2019-04-16T17:20:52.874Z,9.20
2019-04-16T17:23:21.404Z,9.00
2019-04-16T17:25:51.749Z,9.03
2019-04-16T17:28:20.284Z,9.63
2019-04-16T17:30:49.207Z,9.10
2019-04-16T17:33:17.734Z,9.00
2019-04-16T17:35:47.083Z,8.97
2019-04-16T17:38:15.691Z,9.40
2019-04-16T17:40:51.156Z,8.70
2019-04-16T17:43:26.323Z,9.40
2019-04-16T17:45:56.723Z,8.87
2019-04-16T17:48:26.855Z,9.17
2019-04-16T17:50:59.817Z,9.47
2019-04-16T17:53:41.891Z,9.13
2019-04-16T17:56:11.983Z,10.40
2019-04-16T17:58:58.068Z,15.20
2019-04-16T18:01:44.467Z,12.60
2019-04-16T18:04:29.543Z,9.77
2019-04-16T18:07:02.579Z,10.37
2019-04-16T18:09:38.639Z,9.63
2019-04-16T18:12:11.480Z,11.20
2019-04-16T18:14:58.379Z,10.40
2019-04-16T18:17:46.835Z,10.07
2019-04-16T18:20:25.947Z,10.70
2019-04-16T18:23:05.176Z,10.80
2019-04-16T18:25:35.820Z,11.17
2019-04-16T18:28:06.857Z,12.20
2019-04-16T18:30:46.120Z,11.63
2019-04-16T18:33:19.184Z,11.90
2019-04-16T18:35:49.320Z,12.43
2019-04-16T18:38:35.976Z,12.60
2019-04-16T18:41:21.301Z,11.37
2019-04-16T18:44:06.816Z,11.50
2019-04-16T18:46:36.956Z,11.60
2019-04-16T18:49:14.317Z,11.87
2019-04-16T18:51:43.879Z,12.93
2019-04-16T18:54:15.061Z,12.10
2019-04-16T18:56:42.621Z,13.30
2019-04-16T18:59:11.143Z,14.77
2019-04-16T19:01:41.263Z,13.77
2019-04-16T19:04:09.721Z,12.80
2019-04-16T19:06:38.552Z,12.03
2019-04-16T19:09:07.419Z,12.97
2019-04-16T19:11:35.984Z,12.63
2019-04-16T19:14:04.655Z,12.30
2019-04-16T19:16:33.143Z,11.90
2019-04-16T19:19:01.845Z,12.40
2019-04-16T19:21:30.372Z,11.47
2019-04-16T19:23:58.831Z,12.90
2019-04-16T19:26:30.101Z,12.90
2019-04-16T19:28:57.527Z,13.07
2019-04-16T19:31:26.067Z,12.23
2019-04-16T19:33:54.599Z,13.20
2019-04-16T19:36:27.212Z,13.07
2019-04-16T19:38:53.493Z,14.77
2019-04-16T19:41:24.401Z,13.60
2019-04-16T19:43:52.743Z,13.93
2019-04-16T19:46:21.628Z,13.13
2019-04-16T19:48:50.115Z,13.20
2019-04-16T19:51:19.748Z,12.97
2019-04-16T19:53:48.597Z,13.03
2019-04-16T19:56:18.713Z,13.20
2019-04-16T19:58:48.165Z,14.43
2019-04-16T20:01:16.933Z,13.93
2019-04-16T20:03:46.804Z,13.80
2019-04-16T20:06:15.327Z,13.27
2019-04-16T20:08:43.791Z,13.10
2019-04-16T20:11:12.291Z,13.20
2019-04-16T20:13:40.823Z,12.90
2019-04-16T20:16:09.363Z,12.30
2019-04-16T20:18:50.211Z,12.57
2019-04-16T20:21:08.128Z,12.20
2019-04-16T20:23:36.939Z,11.87
2019-04-16T20:26:05.502Z,12.97
2019-04-16T20:28:34.395Z,13.10
2019-04-16T20:31:04.285Z,12.87
2019-04-16T20:33:33.140Z,12.83
2019-04-16T20:36:02.245Z,12.53
2019-04-16T20:38:30.889Z,12.73
2019-04-16T20:40:59.599Z,12.13
2019-04-16T20:43:28.172Z,12.30
2019-04-16T20:45:56.961Z,12.47
2019-04-16T20:48:25.491Z,12.00
2019-04-16T20:50:58.364Z,11.27
2019-04-16T20:53:24.166Z,12.17
2019-04-16T20:55:52.704Z,11.60
2019-04-16T20:58:21.194Z,12.10
2019-04-16T21:00:51.379Z,11.27
2019-04-16T21:03:22.451Z,30.20
2019-04-16T21:05:58.006Z,13.17
2019-04-16T21:08:24.150Z,11.20
2019-04-16T21:10:50.443Z,11.10
2019-04-16T21:13:18.932Z,11.33
2019-04-16T21:15:47.396Z,11.63
2019-04-16T21:18:15.963Z,12.50
2019-04-16T21:20:44.495Z,11.33
2019-04-16T21:23:13.396Z,11.67
2019-04-16T21:25:42.855Z,11.57
2019-04-16T21:28:19.763Z,11.00
2019-04-16T21:30:49.943Z,11.63
2019-04-16T21:33:20.436Z,12.03
2019-04-16T21:35:51.576Z,12.23
2019-04-16T21:38:24.363Z,11.70
2019-04-16T21:40:55.755Z,11.17
2019-04-16T21:43:23.467Z,11.90
2019-04-16T21:45:51.947Z,12.60
2019-04-16T21:48:20.579Z,12.10
2019-04-16T21:50:49.423Z,12.20
2019-04-16T21:53:18.180Z,12.10
2019-04-16T21:55:46.757Z,11.90
2019-04-16T21:58:17.675Z,13.07
2019-04-16T22:00:53.391Z,14.80
2019-04-16T22:03:30.320Z,13.70
2019-04-16T22:05:58.787Z,12.23
2019-04-16T22:08:29.720Z,13.37
2019-04-16T22:10:58.167Z,12.60
2019-04-16T22:13:26.652Z,12.40
2019-04-16T22:15:57.323Z,12.40
2019-04-16T22:18:25.660Z,12.10
2019-04-16T22:20:54.547Z,12.90
2019-04-16T22:23:23.038Z,12.63
2019-04-16T22:25:51.918Z,12.63
2019-04-16T22:28:20.403Z,12.57
2019-04-16T22:30:51.495Z,12.63
2019-04-16T22:33:19.075Z,11.30
2019-04-16T22:35:47.898Z,12.93
2019-04-16T22:38:16.790Z,12.67
2019-04-16T22:40:47.323Z,12.97
2019-04-16T22:43:34.100Z,11.03
2019-04-16T22:46:13.263Z,11.67
2019-04-16T22:48:52.712Z,12.50
2019-04-16T22:51:21.587Z,12.50
2019-04-16T22:53:50.412Z,12.40
2019-04-16T22:56:19.599Z,12.40
2019-04-16T22:58:48.859Z,12.03
2019-04-16T23:01:18.855Z,12.57
2019-04-16T23:03:49.788Z,12.77
2019-04-16T23:06:17.525Z,12.10
2019-04-16T23:08:46.379Z,12.17
2019-04-16T23:11:15.172Z,12.77
2019-04-16T23:13:43.659Z,12.77
2019-04-16T23:16:12.195Z,12.50
2019-04-16T23:18:40.696Z,11.80
2019-04-16T23:21:10.105Z,13.07
2019-04-16T23:23:39.431Z,12.70
2019-04-16T23:26:08.229Z,12.47
2019-04-16T23:28:39.653Z,13.60
2019-04-16T23:31:06.903Z,12.93
2019-04-16T23:33:35.359Z,13.27
2019-04-16T23:36:03.911Z,13.50
2019-04-16T23:38:32.551Z,12.80
2019-04-16T23:41:01.450Z,13.63
2019-04-16T23:43:34.375Z,12.20
2019-04-16T23:46:21.007Z,12.67
2019-04-16T23:48:57.519Z,12.53
2019-04-16T23:51:29.068Z,13.47
2019-04-16T23:53:59.480Z,12.10
2019-04-16T23:56:32.568Z,13.00
2019-04-16T23:59:05.561Z,12.40
